sensor_id;sensor_type;location;lat;lon;timestamp;pressure;altitude;pressure_sealevel;temperature;humidity
7930;BME280;4010;42.698;23.124;2023-03-03T00:01:03;118349.16;;;-140.64;100.00
7930;BME280;4010;42.698;23.124;2023-03-03T00:03:31;118349.16;;;-140.64;100.00
7930;BME280;4010;42.698;23.124;2023-03-03T00:05:58;118349.16;;;-140.64;100.00
7930;BME280;4010;42.698;23.124;2023-03-03T00:08:25;118349.16;;;-140.64;100.00
7930;BME280;4010;42.698;23.124;2023-03-03T00:10:54;118349.16;;;-140.64;100.00
7930;BME280;4010;42.698;23.124;2023-03-03T00:13:22;118349.16;;;-140.64;100.00
7930;BME280;4010;42.698;23.124;2023-03-03T00:15:50;118349.16;;;-140.64;100.00
7930;BME280;4010;42.698;23.124;2023-03-03T00:18:21;118349.16;;;-140.64;100.00
7930;BME280;4010;42.698;23.124;2023-03-03T00:20:51;118349.16;;;-140.64;100.00
7930;BME280;4010;42.698;23.124;2023-03-03T00:23:25;118349.16;;;-140.64;100.00
7930;BME280;4010;42.698;23.124;2023-03-03T00:25:54;118349.16;;;-140.64;100.00
7930;BME280;4010;42.698;23.124;2023-03-03T00:28:24;118349.16;;;-140.64;100.00
7930;BME280;4010;42.698;23.124;2023-03-03T00:30:53;118349.16;;;-140.64;100.00
7930;BME280;4010;42.698;23.124;2023-03-03T00:33:31;118349.16;;;-140.64;100.00
7930;BME280;4010;42.698;23.124;2023-03-03T00:36:27;118349.16;;;-140.64;100.00
7930;BME280;4010;42.698;23.124;2023-03-03T00:38:59;118349.16;;;-140.64;100.00
7930;BME280;4010;42.698;23.124;2023-03-03T00:41:38;118349.16;;;-140.64;100.00
7930;BME280;4010;42.698;23.124;2023-03-03T00:44:30;118349.16;;;-140.64;100.00
7930;BME280;4010;42.698;23.124;2023-03-03T00:47:02;118349.16;;;-140.64;100.00
7930;BME280;4010;42.698;23.124;2023-03-03T00:49:39;118349.16;;;-140.64;100.00
7930;BME280;4010;42.698;23.124;2023-03-03T00:52:11;118349.16;;;-140.64;100.00
7930;BME280;4010;42.698;23.124;2023-03-03T00:54:39;118349.16;;;-140.64;100.00
7930;BME280;4010;42.698;23.124;2023-03-03T00:57:07;118349.16;;;-140.64;100.00
7930;BME280;4010;42.698;23.124;2023-03-03T00:59:33;118349.16;;;-140.64;100.00
7930;BME280;4010;42.698;23.124;2023-03-03T01:02:00;118349.16;;;-140.64;100.00
7930;BME280;4010;42.698;23.124;2023-03-03T01:04:27;118349.16;;;-140.64;100.00
7930;BME280;4010;42.698;23.124;2023-03-03T01:06:53;118349.16;;;-140.64;100.00
7930;BME280;4010;42.698;23.124;2023-03-03T01:09:20;118349.16;;;-140.64;100.00
7930;BME280;4010;42.698;23.124;2023-03-03T01:11:47;118349.16;;;-140.64;100.00
7930;BME280;4010;42.698;23.124;2023-03-03T01:14:16;118349.16;;;-140.64;100.00
7930;BME280;4010;42.698;23.124;2023-03-03T01:16:42;118349.16;;;-140.64;100.00
7930;BME280;4010;42.698;23.124;2023-03-03T01:19:09;118349.16;;;-140.64;100.00
7930;BME280;4010;42.698;23.124;2023-03-03T01:21:36;118349.16;;;-140.64;100.00
7930;BME280;4010;42.698;23.124;2023-03-03T01:24:04;118349.16;;;-140.64;100.00
7930;BME280;4010;42.698;23.124;2023-03-03T01:26:31;118349.16;;;-140.64;100.00
7930;BME280;4010;42.698;23.124;2023-03-03T01:28:57;118349.16;;;-140.64;100.00
7930;BME280;4010;42.698;23.124;2023-03-03T01:31:25;118349.16;;;-140.64;100.00
7930;BME280;4010;42.698;23.124;2023-03-03T01:33:52;118349.16;;;-140.64;100.00
7930;BME280;4010;42.698;23.124;2023-03-03T01:36:22;118349.16;;;-140.64;100.00
7930;BME280;4010;42.698;23.124;2023-03-03T01:38:49;118349.16;;;-140.64;100.00
7930;BME280;4010;42.698;23.124;2023-03-03T01:41:16;118349.16;;;-140.64;100.00
7930;BME280;4010;42.698;23.124;2023-03-03T01:43:44;118349.16;;;-140.64;100.00
7930;BME280;4010;42.698;23.124;2023-03-03T01:46:43;118349.16;;;-140.64;100.00
7930;BME280;4010;42.698;23.124;2023-03-03T01:49:13;118349.16;;;-140.64;100.00
7930;BME280;4010;42.698;23.124;2023-03-03T01:51:48;118349.16;;;-140.64;100.00
7930;BME280;4010;42.698;23.124;2023-03-03T01:54:20;118349.16;;;-140.64;100.00
7930;BME280;4010;42.698;23.124;2023-03-03T01:56:53;118349.16;;;-140.64;100.00
7930;BME280;4010;42.698;23.124;2023-03-03T01:59:23;118349.16;;;-140.64;100.00
7930;BME280;4010;42.698;23.124;2023-03-03T02:01:53;118349.16;;;-140.64;100.00
7930;BME280;4010;42.698;23.124;2023-03-03T02:04:20;118349.16;;;-140.64;100.00
7930;BME280;4010;42.698;23.124;2023-03-03T02:06:50;118349.16;;;-140.64;100.00
7930;BME280;4010;42.698;23.124;2023-03-03T02:09:22;118349.16;;;-140.64;100.00
7930;BME280;4010;42.698;23.124;2023-03-03T02:11:54;118349.16;;;-140.64;100.00
7930;BME280;4010;42.698;23.124;2023-03-03T02:14:23;118349.16;;;-140.64;100.00
7930;BME280;4010;42.698;23.124;2023-03-03T02:16:50;118349.16;;;-140.64;100.00
7930;BME280;4010;42.698;23.124;2023-03-03T02:19:23;118349.16;;;-140.64;100.00
7930;BME280;4010;42.698;23.124;2023-03-03T02:21:53;118349.16;;;-140.64;100.00
7930;BME280;4010;42.698;23.124;2023-03-03T02:24:24;118349.16;;;-140.64;100.00
7930;BME280;4010;42.698;23.124;2023-03-03T02:26:54;118349.16;;;-140.64;100.00
7930;BME280;4010;42.698;23.124;2023-03-03T02:29:21;118349.16;;;-140.64;100.00
7930;BME280;4010;42.698;23.124;2023-03-03T02:31:48;118349.16;;;-140.64;100.00
7930;BME280;4010;42.698;23.124;2023-03-03T02:34:14;118349.16;;;-140.64;100.00
7930;BME280;4010;42.698;23.124;2023-03-03T02:36:42;118349.16;;;-140.64;100.00
7930;BME280;4010;42.698;23.124;2023-03-03T02:39:11;118349.16;;;-140.64;100.00
7930;BME280;4010;42.698;23.124;2023-03-03T02:41:42;118349.16;;;-140.64;100.00
7930;BME280;4010;42.698;23.124;2023-03-03T02:44:13;118349.16;;;-140.64;100.00
7930;BME280;4010;42.698;23.124;2023-03-03T02:46:42;118349.16;;;-140.64;100.00
7930;BME280;4010;42.698;23.124;2023-03-03T02:49:11;118349.16;;;-140.64;100.00
7930;BME280;4010;42.698;23.124;2023-03-03T02:51:39;118349.16;;;-140.64;100.00
7930;BME280;4010;42.698;23.124;2023-03-03T02:54:11;118349.16;;;-140.64;100.00
7930;BME280;4010;42.698;23.124;2023-03-03T02:56:38;118349.16;;;-140.64;100.00
7930;BME280;4010;42.698;23.124;2023-03-03T02:59:05;118349.16;;;-140.64;100.00
7930;BME280;4010;42.698;23.124;2023-03-03T03:01:34;118349.16;;;-140.64;100.00
7930;BME280;4010;42.698;23.124;2023-03-03T03:04:03;118349.16;;;-140.64;100.00
7930;BME280;4010;42.698;23.124;2023-03-03T03:06:31;118349.16;;;-140.64;100.00
7930;BME280;4010;42.698;23.124;2023-03-03T03:08:57;118349.16;;;-140.64;100.00
7930;BME280;4010;42.698;23.124;2023-03-03T03:11:24;118349.16;;;-140.64;100.00
7930;BME280;4010;42.698;23.124;2023-03-03T03:13:51;118349.16;;;-140.64;100.00
7930;BME280;4010;42.698;23.124;2023-03-03T03:16:18;118349.16;;;-140.64;100.00
7930;BME280;4010;42.698;23.124;2023-03-03T03:18:46;118349.16;;;-140.64;100.00
7930;BME280;4010;42.698;23.124;2023-03-03T03:21:14;118349.16;;;-140.64;100.00
7930;BME280;4010;42.698;23.124;2023-03-03T03:23:41;118349.16;;;-140.64;100.00
7930;BME280;4010;42.698;23.124;2023-03-03T03:26:08;118349.16;;;-140.64;100.00
7930;BME280;4010;42.698;23.124;2023-03-03T03:28:35;118349.16;;;-140.64;100.00
7930;BME280;4010;42.698;23.124;2023-03-03T03:31:02;118349.16;;;-140.64;100.00
7930;BME280;4010;42.698;23.124;2023-03-03T03:33:29;118349.16;;;-140.64;100.00
7930;BME280;4010;42.698;23.124;2023-03-03T03:35:59;118349.16;;;-140.64;100.00
7930;BME280;4010;42.698;23.124;2023-03-03T03:38:27;118349.16;;;-140.64;100.00
7930;BME280;4010;42.698;23.124;2023-03-03T03:40:54;118349.16;;;-140.64;100.00
7930;BME280;4010;42.698;23.124;2023-03-03T03:43:21;118349.16;;;-140.64;100.00
7930;BME280;4010;42.698;23.124;2023-03-03T03:45:48;118349.16;;;-140.64;100.00
7930;BME280;4010;42.698;23.124;2023-03-03T03:48:15;118349.16;;;-140.64;100.00
7930;BME280;4010;42.698;23.124;2023-03-03T03:50:43;118349.16;;;-140.64;100.00
7930;BME280;4010;42.698;23.124;2023-03-03T03:53:11;118349.16;;;-140.64;100.00
7930;BME280;4010;42.698;23.124;2023-03-03T03:55:38;118349.16;;;-140.64;100.00
7930;BME280;4010;42.698;23.124;2023-03-03T03:58:05;118349.16;;;-140.64;100.00
7930;BME280;4010;42.698;23.124;2023-03-03T04:00:31;118349.16;;;-140.64;100.00
7930;BME280;4010;42.698;23.124;2023-03-03T04:02:58;118349.16;;;-140.64;100.00
7930;BME280;4010;42.698;23.124;2023-03-03T04:05:25;118349.16;;;-140.64;100.00
7930;BME280;4010;42.698;23.124;2023-03-03T04:07:51;118349.16;;;-140.64;100.00
7930;BME280;4010;42.698;23.124;2023-03-03T04:10:19;118349.16;;;-140.64;100.00
7930;BME280;4010;42.698;23.124;2023-03-03T04:12:46;118349.16;;;-140.64;100.00
7930;BME280;4010;42.698;23.124;2023-03-03T04:15:13;118349.16;;;-140.64;100.00
7930;BME280;4010;42.698;23.124;2023-03-03T04:17:41;118349.16;;;-140.64;100.00
7930;BME280;4010;42.698;23.124;2023-03-03T04:20:10;118349.16;;;-140.64;100.00
7930;BME280;4010;42.698;23.124;2023-03-03T04:22:38;118349.16;;;-140.64;100.00
7930;BME280;4010;42.698;23.124;2023-03-03T04:25:06;118349.16;;;-140.64;100.00
7930;BME280;4010;42.698;23.124;2023-03-03T04:27:35;118349.16;;;-140.64;100.00
7930;BME280;4010;42.698;23.124;2023-03-03T04:30:03;118349.16;;;-140.64;100.00
7930;BME280;4010;42.698;23.124;2023-03-03T04:32:30;118349.16;;;-140.64;100.00
7930;BME280;4010;42.698;23.124;2023-03-03T04:34:58;118349.16;;;-140.64;100.00
7930;BME280;4010;42.698;23.124;2023-03-03T04:37:25;118349.16;;;-140.64;100.00
7930;BME280;4010;42.698;23.124;2023-03-03T04:39:51;118349.16;;;-140.64;100.00
7930;BME280;4010;42.698;23.124;2023-03-03T04:42:18;118349.16;;;-140.64;100.00
7930;BME280;4010;42.698;23.124;2023-03-03T04:44:46;118349.16;;;-140.64;100.00
7930;BME280;4010;42.698;23.124;2023-03-03T04:47:13;118349.16;;;-140.64;100.00
7930;BME280;4010;42.698;23.124;2023-03-03T04:49:39;118349.16;;;-140.64;100.00
7930;BME280;4010;42.698;23.124;2023-03-03T04:52:07;118349.16;;;-140.64;100.00
7930;BME280;4010;42.698;23.124;2023-03-03T04:54:33;118349.16;;;-140.64;100.00
7930;BME280;4010;42.698;23.124;2023-03-03T04:57:00;118349.16;;;-140.64;100.00
7930;BME280;4010;42.698;23.124;2023-03-03T04:59:27;118349.16;;;-140.64;100.00
7930;BME280;4010;42.698;23.124;2023-03-03T05:01:55;118349.16;;;-140.64;100.00
7930;BME280;4010;42.698;23.124;2023-03-03T05:04:21;118349.16;;;-140.64;100.00
7930;BME280;4010;42.698;23.124;2023-03-03T05:06:48;118349.16;;;-140.64;100.00
7930;BME280;4010;42.698;23.124;2023-03-03T05:09:14;118349.16;;;-140.64;100.00
7930;BME280;4010;42.698;23.124;2023-03-03T05:11:41;118349.16;;;-140.64;100.00
7930;BME280;4010;42.698;23.124;2023-03-03T05:14:08;118349.16;;;-140.64;100.00
7930;BME280;4010;42.698;23.124;2023-03-03T05:16:34;118349.16;;;-140.64;100.00
7930;BME280;4010;42.698;23.124;2023-03-03T05:19:02;118349.16;;;-140.64;100.00
7930;BME280;4010;42.698;23.124;2023-03-03T05:21:29;118349.16;;;-140.64;100.00
7930;BME280;4010;42.698;23.124;2023-03-03T05:23:56;118349.16;;;-140.64;100.00
7930;BME280;4010;42.698;23.124;2023-03-03T05:26:22;118349.16;;;-140.64;100.00
7930;BME280;4010;42.698;23.124;2023-03-03T05:28:49;118349.16;;;-140.64;100.00
7930;BME280;4010;42.698;23.124;2023-03-03T05:31:16;118349.16;;;-140.64;100.00
7930;BME280;4010;42.698;23.124;2023-03-03T05:33:42;118349.16;;;-140.64;100.00
7930;BME280;4010;42.698;23.124;2023-03-03T05:36:10;118349.16;;;-140.64;100.00
7930;BME280;4010;42.698;23.124;2023-03-03T05:38:37;118349.16;;;-140.64;100.00
7930;BME280;4010;42.698;23.124;2023-03-03T05:41:04;118349.16;;;-140.64;100.00
7930;BME280;4010;42.698;23.124;2023-03-03T05:43:31;118349.16;;;-140.64;100.00
7930;BME280;4010;42.698;23.124;2023-03-03T05:45:58;118349.16;;;-140.64;100.00
7930;BME280;4010;42.698;23.124;2023-03-03T05:48:25;118349.16;;;-140.64;100.00
7930;BME280;4010;42.698;23.124;2023-03-03T05:50:52;118349.16;;;-140.64;100.00
7930;BME280;4010;42.698;23.124;2023-03-03T05:53:20;118349.16;;;-140.64;100.00
7930;BME280;4010;42.698;23.124;2023-03-03T05:55:46;118349.16;;;-140.64;100.00
7930;BME280;4010;42.698;23.124;2023-03-03T05:58:13;118349.16;;;-140.64;100.00
7930;BME280;4010;42.698;23.124;2023-03-03T06:00:40;118349.16;;;-140.64;100.00
7930;BME280;4010;42.698;23.124;2023-03-03T06:03:07;118349.16;;;-140.64;100.00
7930;BME280;4010;42.698;23.124;2023-03-03T06:05:33;118349.16;;;-140.64;100.00
7930;BME280;4010;42.698;23.124;2023-03-03T06:08:00;118349.16;;;-140.64;100.00
7930;BME280;4010;42.698;23.124;2023-03-03T06:10:28;118349.16;;;-140.64;100.00
7930;BME280;4010;42.698;23.124;2023-03-03T06:12:55;118349.16;;;-140.64;100.00
7930;BME280;4010;42.698;23.124;2023-03-03T06:15:22;118349.16;;;-140.64;100.00
7930;BME280;4010;42.698;23.124;2023-03-03T06:17:49;118349.16;;;-140.64;100.00
7930;BME280;4010;42.698;23.124;2023-03-03T06:20:16;118349.16;;;-140.64;100.00
7930;BME280;4010;42.698;23.124;2023-03-03T06:22:43;118349.16;;;-140.64;100.00
7930;BME280;4010;42.698;23.124;2023-03-03T06:25:09;118349.16;;;-140.64;100.00
7930;BME280;4010;42.698;23.124;2023-03-03T06:27:38;118349.16;;;-140.64;100.00
7930;BME280;4010;42.698;23.124;2023-03-03T06:30:06;118349.16;;;-140.64;100.00
7930;BME280;4010;42.698;23.124;2023-03-03T06:32:32;118349.16;;;-140.64;100.00
7930;BME280;4010;42.698;23.124;2023-03-03T06:34:59;118349.16;;;-140.64;100.00
7930;BME280;4010;42.698;23.124;2023-03-03T06:37:26;118349.16;;;-140.64;100.00
7930;BME280;4010;42.698;23.124;2023-03-03T06:39:52;118349.16;;;-140.64;100.00
7930;BME280;4010;42.698;23.124;2023-03-03T06:42:19;118349.16;;;-140.64;100.00
7930;BME280;4010;42.698;23.124;2023-03-03T06:44:47;118349.16;;;-140.64;100.00
7930;BME280;4010;42.698;23.124;2023-03-03T06:47:14;118349.16;;;-140.64;100.00
7930;BME280;4010;42.698;23.124;2023-03-03T06:49:41;118349.16;;;-140.64;100.00
7930;BME280;4010;42.698;23.124;2023-03-03T06:52:11;118349.16;;;-140.64;100.00
7930;BME280;4010;42.698;23.124;2023-03-03T06:54:39;118349.16;;;-140.64;100.00
7930;BME280;4010;42.698;23.124;2023-03-03T06:57:15;118349.16;;;-140.64;100.00
7930;BME280;4010;42.698;23.124;2023-03-03T06:59:42;118349.16;;;-140.64;100.00
7930;BME280;4010;42.698;23.124;2023-03-03T07:02:15;118349.16;;;-140.64;100.00
7930;BME280;4010;42.698;23.124;2023-03-03T07:04:43;118349.16;;;-140.64;100.00
7930;BME280;4010;42.698;23.124;2023-03-03T07:07:16;118349.16;;;-140.64;100.00
7930;BME280;4010;42.698;23.124;2023-03-03T07:09:43;118349.16;;;-140.64;100.00
7930;BME280;4010;42.698;23.124;2023-03-03T07:12:12;118349.16;;;-140.64;100.00
7930;BME280;4010;42.698;23.124;2023-03-03T07:14:45;118349.16;;;-140.64;100.00
7930;BME280;4010;42.698;23.124;2023-03-03T07:17:15;118349.16;;;-140.64;100.00
7930;BME280;4010;42.698;23.124;2023-03-03T07:19:43;118349.16;;;-140.64;100.00
7930;BME280;4010;42.698;23.124;2023-03-03T07:22:14;118349.16;;;-140.64;100.00
7930;BME280;4010;42.698;23.124;2023-03-03T07:24:43;118349.16;;;-140.64;100.00
7930;BME280;4010;42.698;23.124;2023-03-03T07:27:13;118349.16;;;-140.64;100.00
7930;BME280;4010;42.698;23.124;2023-03-03T07:29:42;118349.16;;;-140.64;100.00
7930;BME280;4010;42.698;23.124;2023-03-03T07:32:24;118349.16;;;-140.64;100.00
7930;BME280;4010;42.698;23.124;2023-03-03T07:34:52;118349.16;;;-140.64;100.00
7930;BME280;4010;42.698;23.124;2023-03-03T07:37:28;118349.16;;;-140.64;100.00
7930;BME280;4010;42.698;23.124;2023-03-03T07:39:56;118349.16;;;-140.64;100.00
7930;BME280;4010;42.698;23.124;2023-03-03T07:42:25;118349.16;;;-140.64;100.00
7930;BME280;4010;42.698;23.124;2023-03-03T07:44:54;118349.16;;;-140.64;100.00
7930;BME280;4010;42.698;23.124;2023-03-03T07:47:24;118349.16;;;-140.64;100.00
7930;BME280;4010;42.698;23.124;2023-03-03T07:49:53;118349.16;;;-140.64;100.00
7930;BME280;4010;42.698;23.124;2023-03-03T07:52:27;118349.16;;;-140.64;100.00
7930;BME280;4010;42.698;23.124;2023-03-03T07:54:55;118349.16;;;-140.64;100.00
7930;BME280;4010;42.698;23.124;2023-03-03T07:57:25;118349.16;;;-140.64;100.00
7930;BME280;4010;42.698;23.124;2023-03-03T07:59:54;118349.16;;;-140.64;100.00
7930;BME280;4010;42.698;23.124;2023-03-03T08:02:37;118349.16;;;-140.64;100.00
7930;BME280;4010;42.698;23.124;2023-03-03T08:05:33;118349.16;;;-140.64;100.00
7930;BME280;4010;42.698;23.124;2023-03-03T08:08:17;118349.16;;;-140.64;100.00
7930;BME280;4010;42.698;23.124;2023-03-03T08:10:47;118349.16;;;-140.64;100.00
7930;BME280;4010;42.698;23.124;2023-03-03T08:13:18;118349.16;;;-140.64;100.00
7930;BME280;4010;42.698;23.124;2023-03-03T08:15:46;118349.16;;;-140.64;100.00
7930;BME280;4010;42.698;23.124;2023-03-03T08:18:24;118349.16;;;-140.64;100.00
7930;BME280;4010;42.698;23.124;2023-03-03T08:20:57;118349.16;;;-140.64;100.00
7930;BME280;4010;42.698;23.124;2023-03-03T08:23:24;118349.16;;;-140.64;100.00
7930;BME280;4010;42.698;23.124;2023-03-03T08:25:51;118349.16;;;-140.64;100.00
7930;BME280;4010;42.698;23.124;2023-03-03T08:28:19;118349.16;;;-140.64;100.00
7930;BME280;4010;42.698;23.124;2023-03-03T08:30:47;118349.16;;;-140.64;100.00
7930;BME280;4010;42.698;23.124;2023-03-03T08:33:14;118349.16;;;-140.64;100.00
7930;BME280;4010;42.698;23.124;2023-03-03T08:35:43;118349.16;;;-140.64;100.00
7930;BME280;4010;42.698;23.124;2023-03-03T08:38:10;118349.16;;;-140.64;100.00
7930;BME280;4010;42.698;23.124;2023-03-03T08:40:37;118349.16;;;-140.64;100.00
7930;BME280;4010;42.698;23.124;2023-03-03T08:43:04;118349.16;;;-140.64;100.00
7930;BME280;4010;42.698;23.124;2023-03-03T08:45:31;118349.16;;;-140.64;100.00
7930;BME280;4010;42.698;23.124;2023-03-03T08:47:58;118349.16;;;-140.64;100.00
7930;BME280;4010;42.698;23.124;2023-03-03T08:50:26;118349.16;;;-140.64;100.00
7930;BME280;4010;42.698;23.124;2023-03-03T08:52:54;118349.16;;;-140.64;100.00
7930;BME280;4010;42.698;23.124;2023-03-03T08:55:21;118349.16;;;-140.64;100.00
7930;BME280;4010;42.698;23.124;2023-03-03T08:57:47;118349.16;;;-140.64;100.00
7930;BME280;4010;42.698;23.124;2023-03-03T09:00:16;118349.16;;;-140.64;99.01
7930;BME280;4010;42.698;23.124;2023-03-03T09:02:43;118349.16;;;-140.64;98.57
7930;BME280;4010;42.698;23.124;2023-03-03T09:05:10;118349.16;;;-140.64;98.66
7930;BME280;4010;42.698;23.124;2023-03-03T09:07:37;118349.16;;;-140.64;99.96
7930;BME280;4010;42.698;23.124;2023-03-03T09:10:06;118349.16;;;-140.64;99.21
7930;BME280;4010;42.698;23.124;2023-03-03T09:12:34;118349.16;;;-140.64;99.45
7930;BME280;4010;42.698;23.124;2023-03-03T09:15:18;118349.16;;;-140.64;99.43
7930;BME280;4010;42.698;23.124;2023-03-03T09:17:46;118349.16;;;-140.64;98.58
7930;BME280;4010;42.698;23.124;2023-03-03T09:20:37;118349.16;;;-140.64;99.28
7930;BME280;4010;42.698;23.124;2023-03-03T09:23:26;118349.16;;;-140.64;99.69
7930;BME280;4010;42.698;23.124;2023-03-03T09:25:56;118349.16;;;-140.64;98.61
7930;BME280;4010;42.698;23.124;2023-03-03T09:28:27;118349.16;;;-140.64;99.92
7930;BME280;4010;42.698;23.124;2023-03-03T09:30:56;118349.16;;;-140.64;99.08
7930;BME280;4010;42.698;23.124;2023-03-03T09:33:26;118349.16;;;-140.64;98.22
7930;BME280;4010;42.698;23.124;2023-03-03T09:35:56;118349.16;;;-140.64;96.90
7930;BME280;4010;42.698;23.124;2023-03-03T09:38:27;118349.16;;;-140.64;94.70
7930;BME280;4010;42.698;23.124;2023-03-03T09:41:15;118349.16;;;-140.64;95.51
7930;BME280;4010;42.698;23.124;2023-03-03T09:43:50;118349.16;;;-140.64;96.16
7930;BME280;4010;42.698;23.124;2023-03-03T09:46:28;118349.16;;;-140.64;96.47
7930;BME280;4010;42.698;23.124;2023-03-03T09:49:07;118349.16;;;-140.64;96.35
7930;BME280;4010;42.698;23.124;2023-03-03T09:51:58;118349.16;;;-140.64;96.07
7930;BME280;4010;42.698;23.124;2023-03-03T09:54:45;118349.16;;;-140.64;95.76
7930;BME280;4010;42.698;23.124;2023-03-03T09:57:21;118349.16;;;-140.64;96.64
7930;BME280;4010;42.698;23.124;2023-03-03T10:00:03;118349.16;;;-140.64;96.40
7930;BME280;4010;42.698;23.124;2023-03-03T10:02:45;118349.16;;;-140.64;97.73
7930;BME280;4010;42.698;23.124;2023-03-03T10:05:20;118349.16;;;-140.64;99.05
7930;BME280;4010;42.698;23.124;2023-03-03T10:08:02;118349.16;;;-140.64;97.82
7930;BME280;4010;42.698;23.124;2023-03-03T10:10:49;118349.16;;;-140.64;98.06
7930;BME280;4010;42.698;23.124;2023-03-03T10:13:30;118349.16;;;-140.64;97.62
7930;BME280;4010;42.698;23.124;2023-03-03T10:19:00;118349.16;;;-140.64;96.47
7930;BME280;4010;42.698;23.124;2023-03-03T10:21:30;118349.16;;;-140.64;97.04
7930;BME280;4010;42.698;23.124;2023-03-03T10:24:05;118349.16;;;-140.64;96.20
7930;BME280;4010;42.698;23.124;2023-03-03T10:26:57;118349.16;;;-140.64;94.63
7930;BME280;4010;42.698;23.124;2023-03-03T10:29:34;118349.16;;;-140.64;96.13
7930;BME280;4010;42.698;23.124;2023-03-03T10:35:24;118349.16;;;-140.64;96.00
7930;BME280;4010;42.698;23.124;2023-03-03T10:38:18;118349.16;;;-140.64;95.57
7930;BME280;4010;42.698;23.124;2023-03-03T10:40:53;118349.16;;;-140.64;98.34
7930;BME280;4010;42.698;23.124;2023-03-03T10:43:41;118349.16;;;-140.64;95.66
7930;BME280;4010;42.698;23.124;2023-03-03T10:46:20;118349.16;;;-140.64;94.89
7930;BME280;4010;42.698;23.124;2023-03-03T10:49:12;118349.16;;;-140.64;95.26
7930;BME280;4010;42.698;23.124;2023-03-03T10:51:53;118349.16;;;-140.64;94.94
7930;BME280;4010;42.698;23.124;2023-03-03T10:54:38;118349.16;;;-140.64;95.84
7930;BME280;4010;42.698;23.124;2023-03-03T10:57:14;118349.16;;;-140.64;95.48
7930;BME280;4010;42.698;23.124;2023-03-03T10:59:57;118349.16;;;-140.64;95.39
7930;BME280;4010;42.698;23.124;2023-03-03T11:02:33;118349.16;;;-140.64;95.25
7930;BME280;4010;42.698;23.124;2023-03-03T11:05:15;118349.16;;;-140.64;96.18
7930;BME280;4010;42.698;23.124;2023-03-03T11:07:46;118349.16;;;-140.64;98.19
7930;BME280;4010;42.698;23.124;2023-03-03T11:10:23;118349.16;;;-140.64;99.89
7930;BME280;4010;42.698;23.124;2023-03-03T11:12:59;118349.16;;;-140.64;99.29
7930;BME280;4010;42.698;23.124;2023-03-03T11:15:42;118349.16;;;-140.64;98.73
7930;BME280;4010;42.698;23.124;2023-03-03T11:18:22;118349.16;;;-140.64;100.00
7930;BME280;4010;42.698;23.124;2023-03-03T11:20:55;118349.16;;;-140.64;99.98
7930;BME280;4010;42.698;23.124;2023-03-03T11:26:28;118349.16;;;-140.64;100.00
7930;BME280;4010;42.698;23.124;2023-03-03T11:29:10;118349.16;;;-140.64;100.00
7930;BME280;4010;42.698;23.124;2023-03-03T11:31:44;118349.16;;;-140.64;100.00
7930;BME280;4010;42.698;23.124;2023-03-03T11:34:33;118349.16;;;-140.64;100.00
7930;BME280;4010;42.698;23.124;2023-03-03T11:37:05;118349.16;;;-140.64;100.00
7930;BME280;4010;42.698;23.124;2023-03-03T11:39:34;118349.16;;;-140.64;100.00
7930;BME280;4010;42.698;23.124;2023-03-03T11:42:08;118349.16;;;-140.64;100.00
7930;BME280;4010;42.698;23.124;2023-03-03T11:44:44;118349.16;;;-140.64;100.00
7930;BME280;4010;42.698;23.124;2023-03-03T11:47:16;118349.16;;;-140.64;100.00
7930;BME280;4010;42.698;23.124;2023-03-03T11:49:49;118349.16;;;-140.64;100.00
7930;BME280;4010;42.698;23.124;2023-03-03T11:52:24;118349.16;;;-140.64;100.00
7930;BME280;4010;42.698;23.124;2023-03-03T11:54:55;118349.16;;;-140.64;100.00
7930;BME280;4010;42.698;23.124;2023-03-03T11:57:29;118349.16;;;-140.64;100.00
7930;BME280;4010;42.698;23.124;2023-03-03T12:00:03;118349.16;;;-140.64;100.00
7930;BME280;4010;42.698;23.124;2023-03-03T12:02:43;118349.16;;;-140.64;100.00
7930;BME280;4010;42.698;23.124;2023-03-03T12:05:24;118349.16;;;-140.64;100.00
7930;BME280;4010;42.698;23.124;2023-03-03T12:07:58;118349.16;;;-140.64;100.00
7930;BME280;4010;42.698;23.124;2023-03-03T12:10:36;118349.16;;;-140.64;100.00
7930;BME280;4010;42.698;23.124;2023-03-03T12:13:11;118349.16;;;-140.64;100.00
7930;BME280;4010;42.698;23.124;2023-03-03T12:15:47;118349.16;;;-140.64;100.00
7930;BME280;4010;42.698;23.124;2023-03-03T12:18:40;118349.16;;;-140.64;100.00
7930;BME280;4010;42.698;23.124;2023-03-03T12:21:30;118349.16;;;-140.64;100.00
7930;BME280;4010;42.698;23.124;2023-03-03T12:24:12;118349.16;;;-140.64;100.00
7930;BME280;4010;42.698;23.124;2023-03-03T12:26:51;118349.16;;;-140.64;100.00
7930;BME280;4010;42.698;23.124;2023-03-03T12:29:25;118349.16;;;-140.64;100.00
7930;BME280;4010;42.698;23.124;2023-03-03T12:31:59;118349.16;;;-140.64;100.00
7930;BME280;4010;42.698;23.124;2023-03-03T12:34:35;118349.16;;;-140.64;100.00
7930;BME280;4010;42.698;23.124;2023-03-03T12:37:19;118349.16;;;-140.64;100.00
7930;BME280;4010;42.698;23.124;2023-03-03T12:39:57;118349.16;;;-140.64;100.00
7930;BME280;4010;42.698;23.124;2023-03-03T12:42:37;118349.16;;;-140.64;100.00
7930;BME280;4010;42.698;23.124;2023-03-03T12:45:17;118349.16;;;-140.64;100.00
7930;BME280;4010;42.698;23.124;2023-03-03T12:47:49;118349.16;;;-140.64;100.00
7930;BME280;4010;42.698;23.124;2023-03-03T12:50:26;118349.16;;;-140.64;100.00
7930;BME280;4010;42.698;23.124;2023-03-03T12:53:05;118349.16;;;-140.64;100.00
7930;BME280;4010;42.698;23.124;2023-03-03T12:55:43;118349.16;;;-140.64;100.00
7930;BME280;4010;42.698;23.124;2023-03-03T12:58:23;118349.16;;;-140.64;100.00
7930;BME280;4010;42.698;23.124;2023-03-03T13:00:58;118349.16;;;-140.64;100.00